sensor_id;sensor_type;location;lat;lon;timestamp;P1;durP1;ratioP1;P2;durP2;ratioP2
42430;SDS011;71905;47.466;19.024;2024-03-23T00:53:12;19.08;;;10.88;;
42430;SDS011;71905;47.466;19.024;2024-03-23T00:55:40;20.13;;;11.25;;
42430;SDS011;71905;47.466;19.024;2024-03-23T00:58:06;20.52;;;12.52;;
42430;SDS011;71905;47.466;19.024;2024-03-23T01:00:33;19.83;;;11.85;;
42430;SDS011;71905;47.466;19.024;2024-03-23T01:02:59;19.20;;;11.68;;
42430;SDS011;71905;47.466;19.024;2024-03-23T01:05:26;22.13;;;12.90;;
42430;SDS011;71905;47.466;19.024;2024-03-23T01:07:52;18.95;;;12.55;;
42430;SDS011;71905;47.466;19.024;2024-03-23T01:10:21;20.98;;;11.77;;
42430;SDS011;71905;47.466;19.024;2024-03-23T01:12:46;18.52;;;11.93;;
42430;SDS011;71905;47.466;19.024;2024-03-23T01:15:14;16.33;;;11.68;;
42430;SDS011;71905;47.466;19.024;2024-03-23T01:17:40;19.52;;;10.90;;
42430;SDS011;71905;47.466;19.024;2024-03-23T01:20:07;17.20;;;10.88;;
42430;SDS011;71905;47.466;19.024;2024-03-23T01:22:33;20.90;;;11.70;;
42430;SDS011;71905;47.466;19.024;2024-03-23T01:25:00;26.58;;;13.30;;
42430;SDS011;71905;47.466;19.024;2024-03-23T01:27:27;20.45;;;12.30;;
42430;SDS011;71905;47.466;19.024;2024-03-23T01:29:54;17.90;;;10.85;;
42430;SDS011;71905;47.466;19.024;2024-03-23T01:32:20;18.92;;;12.07;;
42430;SDS011;71905;47.466;19.024;2024-03-23T01:34:48;19.83;;;12.40;;
42430;SDS011;71905;47.466;19.024;2024-03-23T01:37:14;20.27;;;12.35;;
42430;SDS011;71905;47.466;19.024;2024-03-23T01:39:41;17.15;;;10.85;;
42430;SDS011;71905;47.466;19.024;2024-03-23T01:42:07;23.00;;;12.48;;
42430;SDS011;71905;47.466;19.024;2024-03-23T01:44:35;20.27;;;11.43;;
42430;SDS011;71905;47.466;19.024;2024-03-23T01:47:01;21.38;;;12.02;;
42430;SDS011;71905;47.466;19.024;2024-03-23T01:49:28;18.70;;;12.77;;
42430;SDS011;71905;47.466;19.024;2024-03-23T01:51:55;17.85;;;11.82;;
42430;SDS011;71905;47.466;19.024;2024-03-23T01:54:22;18.23;;;10.75;;
42430;SDS011;71905;47.466;19.024;2024-03-23T01:56:49;21.33;;;11.57;;
42430;SDS011;71905;47.466;19.024;2024-03-23T01:59:16;18.60;;;11.30;;
42430;SDS011;71905;47.466;19.024;2024-03-23T02:01:44;21.23;;;13.10;;
42430;SDS011;71905;47.466;19.024;2024-03-23T02:04:12;22.23;;;12.85;;
42430;SDS011;71905;47.466;19.024;2024-03-23T02:06:38;20.45;;;11.95;;
42430;SDS011;71905;47.466;19.024;2024-03-23T02:09:05;17.50;;;10.75;;
42430;SDS011;71905;47.466;19.024;2024-03-23T02:11:31;17.83;;;11.52;;
42430;SDS011;71905;47.466;19.024;2024-03-23T02:13:58;19.88;;;12.65;;
42430;SDS011;71905;47.466;19.024;2024-03-23T02:16:24;20.63;;;12.10;;
42430;SDS011;71905;47.466;19.024;2024-03-23T02:18:53;21.08;;;12.15;;
42430;SDS011;71905;47.466;19.024;2024-03-23T02:21:19;21.00;;;12.45;;
42430;SDS011;71905;47.466;19.024;2024-03-23T02:23:47;20.65;;;12.90;;
42430;SDS011;71905;47.466;19.024;2024-03-23T02:26:13;18.75;;;11.88;;
42430;SDS011;71905;47.466;19.024;2024-03-23T02:28:41;23.85;;;12.52;;
42430;SDS011;71905;47.466;19.024;2024-03-23T02:31:06;19.63;;;12.35;;
42430;SDS011;71905;47.466;19.024;2024-03-23T02:33:34;19.77;;;12.55;;
42430;SDS011;71905;47.466;19.024;2024-03-23T02:36:03;23.25;;;13.35;;
42430;SDS011;71905;47.466;19.024;2024-03-23T02:38:31;30.77;;;13.32;;
42430;SDS011;71905;47.466;19.024;2024-03-23T02:41:02;19.67;;;11.55;;
42430;SDS011;71905;47.466;19.024;2024-03-23T02:43:29;26.65;;;13.55;;
42430;SDS011;71905;47.466;19.024;2024-03-23T02:45:55;21.63;;;12.10;;
42430;SDS011;71905;47.466;19.024;2024-03-23T02:48:22;24.58;;;12.88;;
42430;SDS011;71905;47.466;19.024;2024-03-23T02:50:49;24.15;;;12.40;;
42430;SDS011;71905;47.466;19.024;2024-03-23T02:53:16;21.30;;;13.07;;
42430;SDS011;71905;47.466;19.024;2024-03-23T02:55:42;25.00;;;13.77;;
42430;SDS011;71905;47.466;19.024;2024-03-23T02:58:10;24.35;;;14.27;;
42430;SDS011;71905;47.466;19.024;2024-03-23T03:00:36;22.83;;;14.10;;
42430;SDS011;71905;47.466;19.024;2024-03-23T03:03:04;21.50;;;14.05;;
42430;SDS011;71905;47.466;19.024;2024-03-23T03:05:30;19.73;;;12.00;;
42430;SDS011;71905;47.466;19.024;2024-03-23T03:07:57;21.85;;;12.88;;
42430;SDS011;71905;47.466;19.024;2024-03-23T03:10:23;18.60;;;12.00;;
42430;SDS011;71905;47.466;19.024;2024-03-23T03:12:50;22.33;;;13.05;;
42430;SDS011;71905;47.466;19.024;2024-03-23T03:15:17;23.15;;;14.55;;
42430;SDS011;71905;47.466;19.024;2024-03-23T03:17:44;21.23;;;13.82;;
42430;SDS011;71905;47.466;19.024;2024-03-23T03:20:10;22.67;;;13.25;;
42430;SDS011;71905;47.466;19.024;2024-03-23T03:22:39;20.45;;;13.02;;
42430;SDS011;71905;47.466;19.024;2024-03-23T03:25:05;20.00;;;12.82;;
42430;SDS011;71905;47.466;19.024;2024-03-23T03:27:33;29.05;;;15.18;;
42430;SDS011;71905;47.466;19.024;2024-03-23T03:29:59;22.30;;;13.65;;
42430;SDS011;71905;47.466;19.024;2024-03-23T03:32:29;23.88;;;13.93;;
42430;SDS011;71905;47.466;19.024;2024-03-23T03:34:55;23.13;;;14.80;;
42430;SDS011;71905;47.466;19.024;2024-03-23T03:37:22;22.55;;;13.77;;
42430;SDS011;71905;47.466;19.024;2024-03-23T03:39:48;30.02;;;17.05;;
42430;SDS011;71905;47.466;19.024;2024-03-23T03:42:15;26.08;;;15.05;;
42430;SDS011;71905;47.466;19.024;2024-03-23T03:44:41;32.33;;;16.63;;
42430;SDS011;71905;47.466;19.024;2024-03-23T03:47:08;25.85;;;16.67;;
42430;SDS011;71905;47.466;19.024;2024-03-23T03:49:36;23.08;;;15.05;;
42430;SDS011;71905;47.466;19.024;2024-03-23T03:52:03;25.30;;;14.07;;
42430;SDS011;71905;47.466;19.024;2024-03-23T03:54:30;23.83;;;15.32;;
42430;SDS011;71905;47.466;19.024;2024-03-23T03:56:57;25.33;;;15.27;;
42430;SDS011;71905;47.466;19.024;2024-03-23T03:59:23;25.13;;;15.65;;
42430;SDS011;71905;47.466;19.024;2024-03-23T04:01:50;23.05;;;13.38;;
42430;SDS011;71905;47.466;19.024;2024-03-23T04:04:16;24.23;;;15.10;;
42430;SDS011;71905;47.466;19.024;2024-03-23T04:06:45;22.70;;;14.40;;
42430;SDS011;71905;47.466;19.024;2024-03-23T04:09:11;26.15;;;15.73;;
42430;SDS011;71905;47.466;19.024;2024-03-23T04:11:38;25.20;;;14.55;;
42430;SDS011;71905;47.466;19.024;2024-03-23T04:14:04;22.98;;;14.88;;
42430;SDS011;71905;47.466;19.024;2024-03-23T04:16:33;23.67;;;14.95;;
42430;SDS011;71905;47.466;19.024;2024-03-23T04:19:00;29.92;;;15.52;;
42430;SDS011;71905;47.466;19.024;2024-03-23T04:21:27;22.88;;;13.80;;
42430;SDS011;71905;47.466;19.024;2024-03-23T04:23:54;23.75;;;16.30;;
42430;SDS011;71905;47.466;19.024;2024-03-23T04:26:21;27.27;;;16.33;;
42430;SDS011;71905;47.466;19.024;2024-03-23T04:28:47;25.38;;;15.13;;
42430;SDS011;71905;47.466;19.024;2024-03-23T04:31:14;28.95;;;16.50;;
42430;SDS011;71905;47.466;19.024;2024-03-23T04:33:40;25.52;;;13.60;;
42430;SDS011;71905;47.466;19.024;2024-03-23T04:36:07;24.73;;;14.93;;
42430;SDS011;71905;47.466;19.024;2024-03-23T04:38:34;30.05;;;17.35;;
42430;SDS011;71905;47.466;19.024;2024-03-23T04:41:03;27.98;;;15.43;;
42430;SDS011;71905;47.466;19.024;2024-03-23T04:43:30;29.45;;;15.63;;
42430;SDS011;71905;47.466;19.024;2024-03-23T04:45:57;28.02;;;16.92;;
42430;SDS011;71905;47.466;19.024;2024-03-23T04:48:24;27.80;;;16.20;;
42430;SDS011;71905;47.466;19.024;2024-03-23T04:50:54;29.40;;;17.08;;
42430;SDS011;71905;47.466;19.024;2024-03-23T04:53:23;26.25;;;16.63;;
42430;SDS011;71905;47.466;19.024;2024-03-23T04:55:54;27.45;;;16.45;;
42430;SDS011;71905;47.466;19.024;2024-03-23T04:58:22;33.72;;;17.25;;
42430;SDS011;71905;47.466;19.024;2024-03-23T05:00:52;28.65;;;16.60;;
42430;SDS011;71905;47.466;19.024;2024-03-23T05:03:20;29.30;;;17.77;;
42430;SDS011;71905;47.466;19.024;2024-03-23T05:05:46;29.92;;;17.90;;
42430;SDS011;71905;47.466;19.024;2024-03-23T05:08:14;33.30;;;17.60;;
42430;SDS011;71905;47.466;19.024;2024-03-23T05:10:41;27.33;;;15.75;;
42430;SDS011;71905;47.466;19.024;2024-03-23T05:13:08;31.45;;;18.02;;
42430;SDS011;71905;47.466;19.024;2024-03-23T05:15:36;28.60;;;15.80;;
42430;SDS011;71905;47.466;19.024;2024-03-23T05:18:03;28.40;;;17.23;;
42430;SDS011;71905;47.466;19.024;2024-03-23T05:20:30;32.85;;;19.13;;
42430;SDS011;71905;47.466;19.024;2024-03-23T05:22:57;33.67;;;19.55;;
42430;SDS011;71905;47.466;19.024;2024-03-23T05:25:23;31.88;;;18.67;;
42430;SDS011;71905;47.466;19.024;2024-03-23T05:27:50;29.52;;;18.48;;
42430;SDS011;71905;47.466;19.024;2024-03-23T05:30:16;29.67;;;18.05;;
42430;SDS011;71905;47.466;19.024;2024-03-23T05:32:45;29.35;;;20.38;;
42430;SDS011;71905;47.466;19.024;2024-03-23T05:35:11;32.47;;;20.30;;
42430;SDS011;71905;47.466;19.024;2024-03-23T05:37:38;34.22;;;20.13;;
42430;SDS011;71905;47.466;19.024;2024-03-23T05:40:04;36.15;;;20.17;;
42430;SDS011;71905;47.466;19.024;2024-03-23T05:42:33;36.75;;;21.75;;
42430;SDS011;71905;47.466;19.024;2024-03-23T05:45:00;35.70;;;21.17;;
42430;SDS011;71905;47.466;19.024;2024-03-23T05:47:27;35.75;;;22.73;;
42430;SDS011;71905;47.466;19.024;2024-03-23T05:49:55;36.58;;;22.25;;
42430;SDS011;71905;47.466;19.024;2024-03-23T05:52:22;39.97;;;24.40;;
42430;SDS011;71905;47.466;19.024;2024-03-23T05:54:50;34.85;;;23.00;;
42430;SDS011;71905;47.466;19.024;2024-03-23T05:57:17;37.83;;;22.80;;
42430;SDS011;71905;47.466;19.024;2024-03-23T05:59:44;34.47;;;21.58;;
42430;SDS011;71905;47.466;19.024;2024-03-23T06:02:11;33.60;;;20.83;;
42430;SDS011;71905;47.466;19.024;2024-03-23T06:04:37;38.17;;;22.10;;
42430;SDS011;71905;47.466;19.024;2024-03-23T06:07:05;32.45;;;20.75;;
42430;SDS011;71905;47.466;19.024;2024-03-23T06:09:32;39.05;;;24.40;;
42430;SDS011;71905;47.466;19.024;2024-03-23T06:11:59;38.22;;;24.83;;
42430;SDS011;71905;47.466;19.024;2024-03-23T06:14:25;36.10;;;25.48;;
42430;SDS011;71905;47.466;19.024;2024-03-23T06:16:52;49.15;;;26.38;;
42430;SDS011;71905;47.466;19.024;2024-03-23T06:19:18;41.58;;;24.58;;
42430;SDS011;71905;47.466;19.024;2024-03-23T06:21:45;42.17;;;26.02;;
42430;SDS011;71905;47.466;19.024;2024-03-23T06:24:13;40.97;;;24.90;;
42430;SDS011;71905;47.466;19.024;2024-03-23T06:26:40;42.50;;;24.95;;
42430;SDS011;71905;47.466;19.024;2024-03-23T06:29:06;36.75;;;24.35;;
42430;SDS011;71905;47.466;19.024;2024-03-23T06:31:33;40.55;;;24.85;;
42430;SDS011;71905;47.466;19.024;2024-03-23T06:33:59;39.30;;;25.55;;
42430;SDS011;71905;47.466;19.024;2024-03-23T06:36:27;41.40;;;25.55;;
42430;SDS011;71905;47.466;19.024;2024-03-23T06:38:53;36.83;;;23.63;;
42430;SDS011;71905;47.466;19.024;2024-03-23T06:41:21;44.58;;;27.95;;
42430;SDS011;71905;47.466;19.024;2024-03-23T06:43:47;41.70;;;27.65;;
42430;SDS011;71905;47.466;19.024;2024-03-23T06:46:14;42.85;;;26.95;;
42430;SDS011;71905;47.466;19.024;2024-03-23T06:48:40;42.85;;;26.48;;
42430;SDS011;71905;47.466;19.024;2024-03-23T06:51:07;37.10;;;24.92;;
42430;SDS011;71905;47.466;19.024;2024-03-23T06:53:34;38.30;;;25.15;;
42430;SDS011;71905;47.466;19.024;2024-03-23T06:56:01;40.67;;;28.15;;
42430;SDS011;71905;47.466;19.024;2024-03-23T06:58:29;49.83;;;29.77;;
42430;SDS011;71905;47.466;19.024;2024-03-23T07:00:56;42.08;;;28.33;;
42430;SDS011;71905;47.466;19.024;2024-03-23T07:03:22;42.40;;;27.60;;
42430;SDS011;71905;47.466;19.024;2024-03-23T07:05:49;41.03;;;28.02;;
42430;SDS011;71905;47.466;19.024;2024-03-23T07:08:15;46.05;;;27.60;;
42430;SDS011;71905;47.466;19.024;2024-03-23T07:10:46;41.53;;;28.60;;
42430;SDS011;71905;47.466;19.024;2024-03-23T07:13:13;39.38;;;27.98;;
42430;SDS011;71905;47.466;19.024;2024-03-23T07:15:41;39.33;;;27.58;;
42430;SDS011;71905;47.466;19.024;2024-03-23T07:18:07;41.25;;;26.17;;
42430;SDS011;71905;47.466;19.024;2024-03-23T07:20:35;39.28;;;26.92;;
42430;SDS011;71905;47.466;19.024;2024-03-23T07:23:01;42.38;;;28.02;;
42430;SDS011;71905;47.466;19.024;2024-03-23T07:25:28;40.88;;;26.95;;
42430;SDS011;71905;47.466;19.024;2024-03-23T07:27:54;38.65;;;26.67;;
42430;SDS011;71905;47.466;19.024;2024-03-23T07:30:21;36.45;;;26.52;;
42430;SDS011;71905;47.466;19.024;2024-03-23T07:32:49;43.33;;;28.35;;
42430;SDS011;71905;47.466;19.024;2024-03-23T07:35:16;39.78;;;27.45;;
42430;SDS011;71905;47.466;19.024;2024-03-23T07:37:42;42.15;;;27.58;;
42430;SDS011;71905;47.466;19.024;2024-03-23T07:40:09;35.88;;;26.15;;
42430;SDS011;71905;47.466;19.024;2024-03-23T07:42:37;39.75;;;26.73;;
42430;SDS011;71905;47.466;19.024;2024-03-23T07:45:04;36.08;;;25.23;;
42430;SDS011;71905;47.466;19.024;2024-03-23T07:47:31;35.85;;;26.35;;
42430;SDS011;71905;47.466;19.024;2024-03-23T07:50:00;33.13;;;24.58;;
42430;SDS011;71905;47.466;19.024;2024-03-23T07:52:27;36.78;;;24.30;;
42430;SDS011;71905;47.466;19.024;2024-03-23T07:54:54;32.55;;;22.98;;
42430;SDS011;71905;47.466;19.024;2024-03-23T07:57:20;29.95;;;20.55;;
42430;SDS011;71905;47.466;19.024;2024-03-23T07:59:47;29.83;;;20.63;;
42430;SDS011;71905;47.466;19.024;2024-03-23T08:02:14;34.00;;;20.13;;
42430;SDS011;71905;47.466;19.024;2024-03-23T08:04:40;27.83;;;19.08;;
42430;SDS011;71905;47.466;19.024;2024-03-23T08:07:09;32.15;;;18.33;;
42430;SDS011;71905;47.466;19.024;2024-03-23T08:09:35;26.80;;;19.20;;
42430;SDS011;71905;47.466;19.024;2024-03-23T08:12:02;26.25;;;19.00;;
42430;SDS011;71905;47.466;19.024;2024-03-23T08:14:28;27.17;;;19.85;;
42430;SDS011;71905;47.466;19.024;2024-03-23T08:16:55;27.02;;;19.45;;
42430;SDS011;71905;47.466;19.024;2024-03-23T08:19:21;27.88;;;18.27;;
42430;SDS011;71905;47.466;19.024;2024-03-23T08:21:48;28.10;;;18.77;;
42430;SDS011;71905;47.466;19.024;2024-03-23T08:24:18;29.08;;;20.45;;
42430;SDS011;71905;47.466;19.024;2024-03-23T08:26:46;28.48;;;20.38;;
42430;SDS011;71905;47.466;19.024;2024-03-23T08:29:12;30.13;;;20.38;;
42430;SDS011;71905;47.466;19.024;2024-03-23T08:31:39;28.73;;;19.75;;
42430;SDS011;71905;47.466;19.024;2024-03-23T08:34:05;34.78;;;21.83;;
42430;SDS011;71905;47.466;19.024;2024-03-23T08:36:32;30.08;;;20.23;;
42430;SDS011;71905;47.466;19.024;2024-03-23T08:38:58;29.45;;;21.17;;
42430;SDS011;71905;47.466;19.024;2024-03-23T08:41:27;30.48;;;20.75;;
42430;SDS011;71905;47.466;19.024;2024-03-23T08:43:54;34.38;;;20.98;;
42430;SDS011;71905;47.466;19.024;2024-03-23T08:46:22;30.70;;;21.27;;
42430;SDS011;71905;47.466;19.024;2024-03-23T08:48:48;26.33;;;19.08;;
42430;SDS011;71905;47.466;19.024;2024-03-23T08:51:15;27.00;;;19.10;;
42430;SDS011;71905;47.466;19.024;2024-03-23T08:53:42;27.67;;;18.95;;
42430;SDS011;71905;47.466;19.024;2024-03-23T08:56:10;24.60;;;18.25;;
42430;SDS011;71905;47.466;19.024;2024-03-23T08:58:38;23.02;;;18.10;;
42430;SDS011;71905;47.466;19.024;2024-03-23T09:01:06;24.70;;;18.58;;
42430;SDS011;71905;47.466;19.024;2024-03-23T09:03:33;28.90;;;19.23;;
42430;SDS011;71905;47.466;19.024;2024-03-23T09:06:02;28.98;;;18.90;;
42430;SDS011;71905;47.466;19.024;2024-03-23T09:08:34;24.17;;;18.17;;
42430;SDS011;71905;47.466;19.024;2024-03-23T09:11:06;25.20;;;18.15;;
42430;SDS011;71905;47.466;19.024;2024-03-23T09:13:34;24.20;;;18.00;;
42430;SDS011;71905;47.466;19.024;2024-03-23T09:16:03;22.13;;;15.07;;
42430;SDS011;71905;47.466;19.024;2024-03-23T09:18:31;22.10;;;16.20;;
42430;SDS011;71905;47.466;19.024;2024-03-23T09:20:59;18.38;;;13.73;;
42430;SDS011;71905;47.466;19.024;2024-03-23T09:23:25;19.08;;;13.63;;
42430;SDS011;71905;47.466;19.024;2024-03-23T09:25:52;18.95;;;13.27;;
42430;SDS011;71905;47.466;19.024;2024-03-23T09:28:18;16.20;;;11.55;;
42430;SDS011;71905;47.466;19.024;2024-03-23T09:30:45;17.08;;;12.88;;
42430;SDS011;71905;47.466;19.024;2024-03-23T09:33:13;15.15;;;11.48;;
42430;SDS011;71905;47.466;19.024;2024-03-23T09:35:41;16.40;;;12.30;;
42430;SDS011;71905;47.466;19.024;2024-03-23T09:38:07;19.83;;;12.00;;
42430;SDS011;71905;47.466;19.024;2024-03-23T09:40:35;14.07;;;11.05;;
42430;SDS011;71905;47.466;19.024;2024-03-23T09:43:06;15.15;;;10.68;;
42430;SDS011;71905;47.466;19.024;2024-03-23T09:45:34;14.40;;;10.52;;
42430;SDS011;71905;47.466;19.024;2024-03-23T09:48:04;14.60;;;9.27;;
42430;SDS011;71905;47.466;19.024;2024-03-23T09:50:34;14.88;;;9.45;;
42430;SDS011;71905;47.466;19.024;2024-03-23T09:53:02;13.82;;;9.00;;
42430;SDS011;71905;47.466;19.024;2024-03-23T09:55:29;15.77;;;8.15;;
42430;SDS011;71905;47.466;19.024;2024-03-23T09:57:55;12.60;;;8.75;;
42430;SDS011;71905;47.466;19.024;2024-03-23T10:00:22;13.18;;;8.55;;
42430;SDS011;71905;47.466;19.024;2024-03-23T10:02:48;19.98;;;8.40;;
42430;SDS011;71905;47.466;19.024;2024-03-23T10:05:19;14.63;;;8.10;;
42430;SDS011;71905;47.466;19.024;2024-03-23T10:07:48;13.40;;;8.20;;
42430;SDS011;71905;47.466;19.024;2024-03-23T10:10:16;21.73;;;8.55;;
42430;SDS011;71905;47.466;19.024;2024-03-23T10:12:43;16.02;;;8.95;;
42430;SDS011;71905;47.466;19.024;2024-03-23T10:15:17;11.30;;;7.57;;
42430;SDS011;71905;47.466;19.024;2024-03-23T10:17:45;14.52;;;9.10;;
42430;SDS011;71905;47.466;19.024;2024-03-23T10:20:12;14.35;;;7.47;;
42430;SDS011;71905;47.466;19.024;2024-03-23T10:22:39;13.93;;;7.43;;
42430;SDS011;71905;47.466;19.024;2024-03-23T10:25:11;12.48;;;7.22;;
42430;SDS011;71905;47.466;19.024;2024-03-23T10:27:39;11.73;;;7.33;;
42430;SDS011;71905;47.466;19.024;2024-03-23T10:30:07;10.07;;;6.22;;
42430;SDS011;71905;47.466;19.024;2024-03-23T10:32:34;13.85;;;6.75;;
42430;SDS011;71905;47.466;19.024;2024-03-23T10:35:14;16.10;;;7.32;;
42430;SDS011;71905;47.466;19.024;2024-03-23T10:37:41;14.07;;;6.80;;
42430;SDS011;71905;47.466;19.024;2024-03-23T10:40:11;11.57;;;6.57;;
42430;SDS011;71905;47.466;19.024;2024-03-23T10:42:38;14.40;;;6.63;;
42430;SDS011;71905;47.466;19.024;2024-03-23T10:45:06;12.32;;;6.57;;
42430;SDS011;71905;47.466;19.024;2024-03-23T10:47:34;9.55;;;6.50;;
42430;SDS011;71905;47.466;19.024;2024-03-23T10:50:02;9.48;;;6.40;;
42430;SDS011;71905;47.466;19.024;2024-03-23T10:52:31;9.82;;;5.85;;
42430;SDS011;71905;47.466;19.024;2024-03-23T10:54:58;13.27;;;6.65;;
42430;SDS011;71905;47.466;19.024;2024-03-23T10:57:29;9.73;;;5.97;;
42430;SDS011;71905;47.466;19.024;2024-03-23T11:00:01;9.63;;;6.93;;
42430;SDS011;71905;47.466;19.024;2024-03-23T11:02:29;12.65;;;5.97;;
42430;SDS011;71905;47.466;19.024;2024-03-23T11:04:56;12.10;;;6.53;;
42430;SDS011;71905;47.466;19.024;2024-03-23T11:07:29;9.88;;;5.35;;
42430;SDS011;71905;47.466;19.024;2024-03-23T11:09:58;8.95;;;5.30;;
42430;SDS011;71905;47.466;19.024;2024-03-23T11:12:25;9.50;;;5.10;;
42430;SDS011;71905;47.466;19.024;2024-03-23T11:14:57;7.05;;;4.85;;
42430;SDS011;71905;47.466;19.024;2024-03-23T11:17:28;7.70;;;4.53;;
42430;SDS011;71905;47.466;19.024;2024-03-23T11:19:56;7.47;;;4.50;;
42430;SDS011;71905;47.466;19.024;2024-03-23T11:25:13;10.15;;;4.32;;
42430;SDS011;71905;47.466;19.024;2024-03-23T11:27:42;8.68;;;4.05;;
42430;SDS011;71905;47.466;19.024;2024-03-23T11:30:14;9.32;;;4.47;;
42430;SDS011;71905;47.466;19.024;2024-03-23T11:32:41;8.73;;;4.47;;
42430;SDS011;71905;47.466;19.024;2024-03-23T11:35:09;12.75;;;4.82;;
42430;SDS011;71905;47.466;19.024;2024-03-23T11:37:36;10.52;;;4.55;;
42430;SDS011;71905;47.466;19.024;2024-03-23T11:40:16;8.18;;;4.47;;
42430;SDS011;71905;47.466;19.024;2024-03-23T11:42:45;9.30;;;4.43;;
42430;SDS011;71905;47.466;19.024;2024-03-23T11:45:12;10.07;;;4.70;;
42430;SDS011;71905;47.466;19.024;2024-03-23T11:47:39;11.40;;;4.53;;
42430;SDS011;71905;47.466;19.024;2024-03-23T11:50:07;8.93;;;4.38;;
42430;SDS011;71905;47.466;19.024;2024-03-23T11:52:33;8.52;;;4.22;;
42430;SDS011;71905;47.466;19.024;2024-03-23T11:55:03;8.55;;;4.50;;
42430;SDS011;71905;47.466;19.024;2024-03-23T11:57:30;14.88;;;5.10;;
42430;SDS011;71905;47.466;19.024;2024-03-23T11:59:59;7.45;;;4.03;;
42430;SDS011;71905;47.466;19.024;2024-03-23T12:02:25;11.02;;;4.57;;
42430;SDS011;71905;47.466;19.024;2024-03-23T12:04:52;8.95;;;3.90;;
42430;SDS011;71905;47.466;19.024;2024-03-23T12:07:18;7.45;;;4.18;;
42430;SDS011;71905;47.466;19.024;2024-03-23T12:09:47;7.38;;;4.20;;
42430;SDS011;71905;47.466;19.024;2024-03-23T12:12:28;8.55;;;3.60;;
42430;SDS011;71905;47.466;19.024;2024-03-23T12:15:03;10.48;;;3.78;;
42430;SDS011;71905;47.466;19.024;2024-03-23T12:17:31;7.93;;;3.45;;
42430;SDS011;71905;47.466;19.024;2024-03-23T12:20:00;7.03;;;2.92;;
42430;SDS011;71905;47.466;19.024;2024-03-23T12:22:26;5.97;;;3.13;;
42430;SDS011;71905;47.466;19.024;2024-03-23T12:24:55;7.93;;;3.17;;
42430;SDS011;71905;47.466;19.024;2024-03-23T12:27:23;5.13;;;2.70;;
42430;SDS011;71905;47.466;19.024;2024-03-23T12:29:50;8.50;;;3.25;;
42430;SDS011;71905;47.466;19.024;2024-03-23T12:32:18;9.13;;;3.40;;
42430;SDS011;71905;47.466;19.024;2024-03-23T12:34:45;5.50;;;2.80;;
42430;SDS011;71905;47.466;19.024;2024-03-23T12:37:13;5.38;;;2.72;;
42430;SDS011;71905;47.466;19.024;2024-03-23T12:39:43;5.65;;;3.10;;
42430;SDS011;71905;47.466;19.024;2024-03-23T12:42:08;7.50;;;3.30;;
42430;SDS011;71905;47.466;19.024;2024-03-23T12:44:36;5.78;;;2.92;;
42430;SDS011;71905;47.466;19.024;2024-03-23T12:47:02;5.65;;;2.65;;
42430;SDS011;71905;47.466;19.024;2024-03-23T12:49:30;4.75;;;2.90;;
42430;SDS011;71905;47.466;19.024;2024-03-23T12:51:58;7.75;;;2.78;;
42430;SDS011;71905;47.466;19.024;2024-03-23T12:54:27;4.90;;;2.72;;
42430;SDS011;71905;47.466;19.024;2024-03-23T12:56:53;4.75;;;2.60;;
42430;SDS011;71905;47.466;19.024;2024-03-23T12:59:20;6.65;;;2.55;;
42430;SDS011;71905;47.466;19.024;2024-03-23T13:01:46;5.32;;;2.30;;
42430;SDS011;71905;47.466;19.024;2024-03-23T13:04:13;7.38;;;2.90;;
42430;SDS011;71905;47.466;19.024;2024-03-23T13:06:41;5.03;;;2.85;;
42430;SDS011;71905;47.466;19.024;2024-03-23T13:09:08;5.53;;;2.40;;
42430;SDS011;71905;47.466;19.024;2024-03-23T13:11:34;4.78;;;2.70;;
42430;SDS011;71905;47.466;19.024;2024-03-23T13:14:01;5.70;;;2.58;;
42430;SDS011;71905;47.466;19.024;2024-03-23T13:16:30;7.25;;;2.92;;
42430;SDS011;71905;47.466;19.024;2024-03-23T13:18:57;5.85;;;2.10;;
42430;SDS011;71905;47.466;19.024;2024-03-23T13:21:23;4.75;;;2.60;;
42430;SDS011;71905;47.466;19.024;2024-03-23T13:23:52;5.55;;;3.20;;
42430;SDS011;71905;47.466;19.024;2024-03-23T13:26:18;5.50;;;2.88;;
42430;SDS011;71905;47.466;19.024;2024-03-23T13:28:45;4.40;;;2.35;;
42430;SDS011;71905;47.466;19.024;2024-03-23T13:31:11;4.97;;;2.35;;
42430;SDS011;71905;47.466;19.024;2024-03-23T13:33:39;5.30;;;2.45;;
42430;SDS011;71905;47.466;19.024;2024-03-23T13:36:07;5.38;;;2.78;;
42430;SDS011;71905;47.466;19.024;2024-03-23T13:38:35;11.60;;;2.90;;
42430;SDS011;71905;47.466;19.024;2024-03-23T13:41:02;4.75;;;2.30;;
42430;SDS011;71905;47.466;19.024;2024-03-23T13:43:32;5.45;;;3.00;;
42430;SDS011;71905;47.466;19.024;2024-03-23T13:46:02;4.22;;;2.47;;
42430;SDS011;71905;47.466;19.024;2024-03-23T13:48:29;7.28;;;2.70;;
42430;SDS011;71905;47.466;19.024;2024-03-23T13:50:58;6.15;;;2.92;;
42430;SDS011;71905;47.466;19.024;2024-03-23T13:53:26;4.53;;;2.10;;
42430;SDS011;71905;47.466;19.024;2024-03-23T13:55:52;6.60;;;2.67;;
42430;SDS011;71905;47.466;19.024;2024-03-23T13:58:20;4.70;;;2.55;;
42430;SDS011;71905;47.466;19.024;2024-03-23T14:00:47;7.00;;;2.65;;
42430;SDS011;71905;47.466;19.024;2024-03-23T14:03:14;4.32;;;2.10;;
42430;SDS011;71905;47.466;19.024;2024-03-23T14:05:40;6.40;;;2.58;;
42430;SDS011;71905;47.466;19.024;2024-03-23T14:08:08;5.55;;;2.55;;
42430;SDS011;71905;47.466;19.024;2024-03-23T14:10:35;7.85;;;2.65;;
42430;SDS011;71905;47.466;19.024;2024-03-23T14:13:02;4.85;;;2.55;;
42430;SDS011;71905;47.466;19.024;2024-03-23T14:15:30;5.20;;;2.30;;
42430;SDS011;71905;47.466;19.024;2024-03-23T14:17:57;3.28;;;2.55;;
42430;SDS011;71905;47.466;19.024;2024-03-23T14:20:23;5.60;;;2.50;;
42430;SDS011;71905;47.466;19.024;2024-03-23T14:22:51;5.57;;;2.60;;
42430;SDS011;71905;47.466;19.024;2024-03-23T14:25:17;4.22;;;2.30;;
42430;SDS011;71905;47.466;19.024;2024-03-23T14:27:44;4.82;;;2.22;;
42430;SDS011;71905;47.466;19.024;2024-03-23T14:30:11;8.63;;;2.33;;
42430;SDS011;71905;47.466;19.024;2024-03-23T14:32:40;5.07;;;2.38;;
42430;SDS011;71905;47.466;19.024;2024-03-23T14:35:07;9.77;;;2.40;;
42430;SDS011;71905;47.466;19.024;2024-03-23T14:37:36;5.22;;;2.40;;
42430;SDS011;71905;47.466;19.024;2024-03-23T14:40:02;4.72;;;2.25;;
42430;SDS011;71905;47.466;19.024;2024-03-23T14:42:30;3.60;;;2.30;;
42430;SDS011;71905;47.466;19.024;2024-03-23T14:44:58;6.57;;;2.60;;
42430;SDS011;71905;47.466;19.024;2024-03-23T14:47:24;7.53;;;2.65;;
42430;SDS011;71905;47.466;19.024;2024-03-23T14:49:52;6.82;;;2.80;;
42430;SDS011;71905;47.466;19.024;2024-03-23T14:52:19;5.25;;;2.80;;
42430;SDS011;71905;47.466;19.024;2024-03-23T14:54:46;5.97;;;3.10;;
42430;SDS011;71905;47.466;19.024;2024-03-23T14:57:12;4.75;;;2.85;;
42430;SDS011;71905;47.466;19.024;2024-03-23T14:59:39;4.63;;;2.80;;
42430;SDS011;71905;47.466;19.024;2024-03-23T15:02:05;6.28;;;3.05;;
42430;SDS011;71905;47.466;19.024;2024-03-23T15:04:33;7.32;;;3.08;;
42430;SDS011;71905;47.466;19.024;2024-03-23T15:07:00;6.65;;;3.47;;
42430;SDS011;71905;47.466;19.024;2024-03-23T15:09:28;10.57;;;3.50;;
42430;SDS011;71905;47.466;19.024;2024-03-23T15:11:54;4.25;;;2.78;;